Time;durP1;ratioP1;P1;durP2;ratioP2;P2;SDS_P1;SDS_P2;PMS_P1;PMS_P2;Temp;Humidity;BMP_temperature;BMP_pressure;BME280_temperature;BME280_humidity;BME280_pressure;Samples;Min_cycle;Max_cycle;Signal;HPM_P1;HPM_P2
2021/06/01 00:01:39;;;;;;;48.70;45.33;;;13.80;99.90;;;;;;5013019;28;20022;-51
2021/06/01 00:04:08;;;;;;;48.65;45.38;;;13.80;99.90;;;;;;5013019;28;20061;-52
2021/06/01 00:06:36;;;;;;;47.35;44.22;;;13.90;99.90;;;;;;5013112;28;20050;-50
2021/06/01 00:09:07;;;;;;;48.00;44.72;;;14.20;99.90;;;;;;5012996;28;20069;-53
2021/06/01 00:11:35;;;;;;;47.15;43.95;;;14.40;99.90;;;;;;5016033;28;20026;-50
2021/06/01 00:14:02;;;;;;;46.45;43.40;;;14.50;99.90;;;;;;5019482;28;20029;-52
2021/06/01 00:16:30;;;;;;;43.38;40.38;;;14.60;99.90;;;;;;5019653;28;20057;-51
2021/06/01 00:18:58;;;;;;;43.65;40.80;;;14.70;99.90;;;;;;5019391;28;20030;-54
2021/06/01 00:21:25;;;;;;;41.40;38.80;;;14.80;99.90;;;;;;5019396;28;20029;-53
2021/06/01 00:23:54;;;;;;;40.60;37.80;;;15.10;99.90;;;;;;5019311;28;20026;-53
2021/06/01 00:26:22;;;;;;;37.90;35.40;;;15.40;99.90;;;;;;5019273;28;20037;-55
2021/06/01 00:28:52;;;;;;;39.75;37.25;;;15.50;99.90;;;;;;5019328;28;20032;-54
2021/06/01 00:31:20;;;;;;;43.58;40.75;;;15.20;99.90;;;;;;5019022;28;20081;-52
2021/06/01 00:33:47;;;;;;;42.35;39.65;;;15.10;99.90;;;;;;5019310;28;20038;-55
2021/06/01 00:36:14;;;;;;;43.17;40.70;;;15.20;99.90;;;;;;5019246;28;20104;-54
2021/06/01 00:38:42;;;;;;;43.80;41.00;;;15.40;99.90;;;;;;5019600;28;20057;-54
2021/06/01 00:41:09;;;;;;;44.00;40.88;;;15.70;99.90;;;;;;5019224;28;20026;-52
2021/06/01 00:43:36;;;;;;;42.05;39.22;;;15.70;99.90;;;;;;5019342;28;20026;-53
2021/06/01 00:46:04;;;;;;;41.30;38.25;;;15.70;99.90;;;;;;5019400;28;20058;-54
2021/06/01 00:48:31;;;;;;;40.85;38.03;;;15.60;99.90;;;;;;5019330;28;20494;-53
2021/06/01 00:50:59;;;;;;;40.35;37.67;;;15.80;99.90;;;;;;5019338;28;20029;-58
2021/06/01 00:53:27;;;;;;;39.65;37.45;;;16.10;99.90;;;;;;5019293;28;20038;-58
2021/06/01 00:55:54;;;;;;;38.45;35.85;;;16.20;99.90;;;;;;5019566;28;20025;-57
2021/06/01 00:58:22;;;;;;;37.40;34.92;;;16.30;99.90;;;;;;5019132;28;20172;-59
2021/06/01 01:07:14;;;;;;;26.27;24.80;;;16.60;99.90;;;;;;5019545;28;20024;-53
2021/06/01 01:09:46;;;;;;;24.35;23.05;;;16.90;99.90;;;;;;5019190;28;20037;-55
2021/06/01 01:12:17;;;;;;;20.67;19.67;;;17.10;99.90;;;;;;5019065;28;20057;-54
2021/06/01 01:15:03;;;;;;;;;;;17.20;99.90;;;;;;5019440;28;20033;-55
2021/06/01 01:17:47;;;;;;;18.92;17.95;;;17.40;99.90;;;;;;5018903;28;19912;-55
2021/06/01 01:20:35;;;;;;;18.35;17.40;;;17.50;99.90;;;;;;5019292;28;20033;-50
2021/06/01 01:23:15;;;;;;;19.88;18.65;;;17.90;99.90;;;;;;5017480;28;20026;-53
2021/06/01 01:26:06;;;;;;;22.05;20.60;;;18.10;99.90;;;;;;5016034;28;20541;-52
2021/06/01 01:29:03;;;;;;;22.10;20.50;;;18.00;99.90;;;;;;5016013;28;20363;-49
2021/06/01 01:31:51;;;;;;;21.02;19.55;;;18.20;99.90;;;;;;4998786;28;20449;-53
2021/06/01 01:34:19;;;;;;;20.30;19.00;;;18.10;99.90;;;;;;5015911;28;20037;-54
2021/06/01 01:36:48;;;;;;;21.05;19.70;;;18.10;99.90;;;;;;5015572;28;20545;-55
2021/06/01 01:39:17;;;;;;;19.27;18.00;;;18.00;99.90;;;;;;5015610;28;20026;-52
2021/06/01 01:41:45;;;;;;;18.67;17.42;;;17.90;99.90;;;;;;5015565;28;20084;-51
2021/06/01 01:44:16;;;;;;;19.00;18.00;;;17.70;99.90;;;;;;5015355;28;20118;-53
2021/06/01 01:49:30;;;;;;;20.50;18.77;;;17.30;99.90;;;;;;5015387;28;20036;-47
2021/06/01 01:52:01;;;;;;;21.05;19.55;;;17.30;99.90;;;;;;5015404;28;20022;-55
2021/06/01 01:54:33;;;;;;;20.42;18.98;;;17.30;99.90;;;;;;5015468;28;20391;-48
2021/06/01 01:57:11;;;;;;;20.15;18.73;;;17.20;99.90;;;;;;4998722;28;20026;-52
2021/06/01 01:59:39;;;;;;;19.25;17.98;;;17.30;99.90;;;;;;5014949;28;20042;-51
2021/06/01 02:02:12;;;;;;;19.40;18.02;;;17.20;99.90;;;;;;5015146;28;20050;-54
2021/06/01 02:04:40;;;;;;;18.65;17.55;;;17.00;99.90;;;;;;5015139;28;20479;-53
2021/06/01 02:07:07;;;;;;;19.98;18.63;;;16.80;99.90;;;;;;5015057;28;20093;-48
2021/06/01 02:09:35;;;;;;;19.88;18.40;;;16.70;99.90;;;;;;5015068;28;20022;-52
2021/06/01 02:12:03;;;;;;;18.55;17.38;;;16.90;99.90;;;;;;5014888;28;20022;-54
2021/06/01 02:14:30;;;;;;;19.20;17.70;;;17.00;99.90;;;;;;5014727;28;20030;-54
2021/06/01 02:16:58;;;;;;;19.23;17.77;;;17.10;99.90;;;;;;5014898;28;20152;-53
2021/06/01 02:19:27;;;;;;;17.00;15.98;;;17.30;99.90;;;;;;5014696;28;20034;-54
2021/06/01 02:25:09;;;;;;;16.52;15.23;;;17.60;99.90;;;;;;5015054;28;20098;-52
2021/06/01 02:27:42;;;;;;;14.48;13.63;;;17.30;99.90;;;;;;5014698;28;20026;-51
2021/06/01 02:30:17;;;;;;;14.45;13.32;;;17.20;99.90;;;;;;5014724;28;20025;-52
2021/06/01 02:32:52;;;;;;;14.13;13.23;;;17.00;99.90;;;;;;5014555;28;20101;-48
2021/06/01 02:35:28;;;;;;;13.57;12.82;;;17.00;99.90;;;;;;5014053;28;20182;-49
2021/06/01 02:37:59;;;;;;;12.95;12.15;;;17.30;99.90;;;;;;5014481;28;20037;-51
2021/06/01 02:40:28;;;;;;;13.57;12.68;;;17.50;99.90;;;;;;5014476;28;20499;-50
2021/06/01 02:42:56;;;;;;;12.00;11.18;;;17.50;99.90;;;;;;5014237;28;20030;-51
2021/06/01 02:45:24;;;;;;;11.88;11.00;;;17.70;99.90;;;;;;5014426;28;20096;-53
2021/06/01 02:47:53;;;;;;;11.23;10.40;;;18.10;99.90;;;;;;5014256;28;20018;-55
2021/06/01 02:50:21;;;;;;;10.63;9.80;;;18.10;99.90;;;;;;5014377;28;20112;-54
2021/06/01 02:52:50;;;;;;;9.73;9.00;;;18.40;99.90;;;;;;5014188;28;20149;-52
2021/06/01 02:55:20;;;;;;;8.68;8.07;;;18.60;99.90;;;;;;5014246;28;20049;-56
2021/06/01 02:57:47;;;;;;;9.00;8.20;;;18.70;99.90;;;;;;5014066;28;20030;-56
2021/06/01 03:00:21;;;;;;;8.30;7.70;;;18.70;99.90;;;;;;5013891;28;20050;-52
2021/06/01 03:02:49;;;;;;;8.20;7.60;;;18.40;99.90;;;;;;5013982;28;20153;-55
2021/06/01 03:05:17;;;;;;;7.38;6.85;;;18.30;99.90;;;;;;5013933;28;20033;-54
2021/06/01 03:07:52;;;;;;;8.23;6.88;;;18.30;99.90;;;;;;4996588;28;20025;-55
2021/06/01 03:10:20;;;;;;;6.78;6.25;;;18.40;99.90;;;;;;5014247;28;20018;-55
2021/06/01 03:12:57;;;;;;;7.55;6.95;;;18.40;99.90;;;;;;5013774;28;20034;-56
2021/06/01 03:15:25;;;;;;;6.93;6.43;;;18.50;99.90;;;;;;5013841;28;20502;-52
2021/06/01 03:17:52;;;;;;;7.95;7.35;;;18.60;99.90;;;;;;5013960;28;20060;-49
2021/06/01 03:20:21;;;;;;;6.28;5.90;;;18.40;99.90;;;;;;5013783;28;20025;-54
2021/06/01 03:22:48;;;;;;;6.47;6.03;;;18.20;98.80;;;;;;5013548;28;20034;-51
2021/06/01 03:25:16;;;;;;;5.35;5.00;;;18.00;98.20;;;;;;5013741;28;20382;-54
2021/06/01 03:27:43;;;;;;;5.20;4.70;;;18.10;99.00;;;;;;5013613;28;20561;-55
2021/06/01 03:30:12;;;;;;;6.55;5.60;;;18.50;99.60;;;;;;5013897;28;20044;-55
2021/06/01 03:32:40;;;;;;;5.60;5.10;;;18.50;98.90;;;;;;5013916;28;20022;-55
2021/06/01 03:35:09;;;;;;;7.20;5.07;;;18.40;99.20;;;;;;5013458;28;20368;-54
2021/06/01 03:37:36;;;;;;;6.25;5.65;;;18.30;99.60;;;;;;5013522;28;20026;-54
2021/06/01 03:40:05;;;;;;;5.60;5.10;;;18.50;99.40;;;;;;5013475;28;20029;-53
2021/06/01 03:42:32;;;;;;;6.05;5.63;;;18.50;99.20;;;;;;5013227;28;20486;-54
2021/06/01 03:45:00;;;;;;;5.85;5.25;;;18.50;99.90;;;;;;5013589;28;20022;-55
2021/06/01 03:47:28;;;;;;;5.75;5.40;;;18.50;99.00;;;;;;5012642;28;20037;-51
2021/06/01 03:49:57;;;;;;;7.05;5.97;;;18.50;99.90;;;;;;5013486;28;20029;-53
2021/06/01 03:52:24;;;;;;;5.88;5.40;;;18.30;99.90;;;;;;5013379;28;20097;-53
2021/06/01 03:54:52;;;;;;;5.32;4.82;;;18.20;99.90;;;;;;5013419;28;20018;-55
2021/06/01 03:57:19;;;;;;;5.53;5.00;;;18.20;99.90;;;;;;5013082;28;20025;-52
2021/06/01 03:59:46;;;;;;;7.25;5.60;;;18.00;99.90;;;;;;5013027;28;20090;-52
2021/06/01 04:02:14;;;;;;;5.07;4.68;;;17.90;99.90;;;;;;5013232;28;20045;-51
2021/06/01 04:04:41;;;;;;;5.63;5.10;;;17.70;99.90;;;;;;5013086;28;20038;-51
2021/06/01 04:07:11;;;;;;;5.22;4.72;;;17.70;99.90;;;;;;5013005;28;20021;-54
2021/06/01 04:09:38;;;;;;;6.38;5.78;;;17.80;99.90;;;;;;5013222;28;20030;-53
2021/06/01 04:12:06;;;;;;;5.55;5.10;;;18.00;99.90;;;;;;5013189;28;20021;-53
2021/06/01 04:14:34;;;;;;;5.47;5.07;;;18.30;99.90;;;;;;5013105;28;20026;-54
2021/06/01 04:17:02;;;;;;;5.68;4.70;;;18.50;99.70;;;;;;5013070;28;20057;-51
2021/06/01 04:19:29;;;;;;;6.40;4.78;;;18.50;99.40;;;;;;5012959;28;20022;-51
2021/06/01 04:21:56;;;;;;;4.95;4.50;;;18.60;99.30;;;;;;5013016;28;20084;-52
2021/06/01 04:24:28;;;;;;;5.05;4.60;;;18.50;99.30;;;;;;5012834;28;20077;-54
2021/06/01 04:27:00;;;;;;;5.00;4.70;;;18.30;99.70;;;;;;5012913;28;20100;-53
2021/06/01 04:29:28;;;;;;;4.93;4.30;;;18.20;99.20;;;;;;5012880;28;20050;-53
2021/06/01 04:31:56;;;;;;;4.95;4.55;;;18.20;98.50;;;;;;5012831;28;20022;-52
2021/06/01 04:34:23;;;;;;;4.75;4.45;;;18.30;98.80;;;;;;5013005;28;20034;-51
2021/06/01 04:36:51;;;;;;;5.50;4.82;;;18.30;98.60;;;;;;5012855;28;20026;-53
2021/06/01 04:39:18;;;;;;;4.57;4.20;;;18.30;99.00;;;;;;5012761;28;20030;-53
2021/06/01 04:41:46;;;;;;;4.57;3.88;;;18.30;98.50;;;;;;5012868;28;20025;-53
2021/06/01 04:44:13;;;;;;;3.85;3.60;;;18.20;98.40;;;;;;5012647;28;20034;-52
2021/06/01 04:46:40;;;;;;;4.40;4.10;;;18.10;98.50;;;;;;5012765;28;20471;-53
2021/06/01 04:49:08;;;;;;;4.65;4.25;;;18.00;98.90;;;;;;5012695;28;20032;-51
2021/06/01 04:51:35;;;;;;;4.32;4.13;;;18.10;98.40;;;;;;4995219;28;20426;-56
2021/06/01 04:54:02;;;;;;;4.72;4.40;;;18.00;97.60;;;;;;5012865;28;20068;-51
2021/06/01 04:56:30;;;;;;;5.15;4.70;;;18.10;97.90;;;;;;5012617;28;20024;-50
2021/06/01 04:58:58;;;;;;;4.50;4.25;;;18.10;98.80;;;;;;5015662;28;20137;-51
2021/06/01 05:01:25;;;;;;;4.70;4.40;;;18.10;99.20;;;;;;5016333;28;20021;-50
2021/06/01 05:03:53;;;;;;;5.03;4.50;;;18.10;98.60;;;;;;5016261;28;20042;-52
2021/06/01 05:06:21;;;;;;;5.45;4.40;;;18.20;98.00;;;;;;5016269;28;20072;-50
2021/06/01 05:08:49;;;;;;;5.07;4.60;;;18.00;98.00;;;;;;5016197;28;20498;-50
2021/06/01 05:11:17;;;;;;;4.65;4.32;;;18.00;97.60;;;;;;5016133;28;20030;-54
2021/06/01 05:13:44;;;;;;;4.55;4.18;;;17.90;98.30;;;;;;5016028;28;20029;-54
2021/06/01 05:16:12;;;;;;;4.68;4.40;;;17.80;98.40;;;;;;5016057;28;20105;-53
2021/06/01 05:18:39;;;;;;;5.05;4.70;;;17.70;99.00;;;;;;5015789;28;20041;-55
2021/06/01 05:21:07;;;;;;;4.97;4.50;;;17.60;98.00;;;;;;5015812;28;20072;-53
2021/06/01 05:23:35;;;;;;;5.03;4.53;;;17.60;97.80;;;;;;5015484;28;20038;-54
2021/06/01 05:26:04;;;;;;;5.18;4.88;;;17.50;97.70;;;;;;4998266;28;20022;-52
2021/06/01 05:28:32;;;;;;;5.20;4.70;;;17.50;98.30;;;;;;5015989;28;20022;-52
2021/06/01 05:33:39;;;;;;;4.40;4.10;;;17.50;98.20;;;;;;5015824;28;20080;-48
2021/06/01 05:36:07;;;;;;;4.38;3.97;;;17.50;98.50;;;;;;5015705;28;20034;-48
2021/06/01 05:38:34;;;;;;;5.47;4.63;;;17.50;99.10;;;;;;5015662;28;20026;-54
2021/06/01 05:41:02;;;;;;;4.80;4.50;;;17.40;99.50;;;;;;5015655;28;20026;-50
2021/06/01 05:43:30;;;;;;;5.95;4.55;;;17.40;99.70;;;;;;5015444;28;20505;-51
2021/06/01 05:45:58;;;;;;;5.50;5.10;;;17.30;99.90;;;;;;5015431;28;20026;-53
2021/06/01 05:48:25;;;;;;;4.93;4.43;;;17.30;99.90;;;;;;5015360;28;20022;-54
2021/06/01 05:50:55;;;;;;;4.35;4.05;;;17.20;99.90;;;;;;5015390;28;20364;-52
2021/06/01 05:53:24;;;;;;;5.35;4.85;;;17.20;99.90;;;;;;5015272;28;20030;-54
2021/06/01 05:55:53;;;;;;;5.30;4.90;;;17.10;99.90;;;;;;5015142;28;20040;-53
2021/06/01 05:58:22;;;;;;;5.90;5.47;;;16.90;99.90;;;;;;5015126;28;20454;-53
2021/06/01 06:00:50;;;;;;;5.90;5.50;;;16.80;99.90;;;;;;5015105;28;20038;-52
2021/06/01 06:03:18;;;;;;;6.57;5.97;;;16.70;99.90;;;;;;5015127;28;20026;-49
2021/06/01 06:05:46;;;;;;;26.55;15.63;;;16.70;99.90;;;;;;5015169;28;20021;-51
2021/06/01 06:08:19;;;;;;;39.75;22.40;;;16.60;99.90;;;;;;5015089;28;20498;-48
2021/06/01 06:10:48;;;;;;;37.35;21.20;;;16.50;99.90;;;;;;5014412;28;20088;-49
2021/06/01 06:13:16;;;;;;;24.45;15.35;;;16.40;99.90;;;;;;5014973;28;20098;-52
2021/06/01 06:15:44;;;;;;;18.77;11.30;;;16.30;99.90;;;;;;5014890;28;20387;-53
2021/06/01 06:18:42;;;;;;;13.02;9.35;;;16.20;99.90;;;;;;5014898;28;20390;-51
2021/06/01 06:21:11;;;;;;;10.57;9.20;;;16.10;99.90;;;;;;5015219;28;20112;-51
2021/06/01 06:23:40;;;;;;;11.23;10.02;;;16.00;99.90;;;;;;5014190;28;20406;-48
2021/06/01 06:26:08;;;;;;;16.13;11.77;;;15.90;99.90;;;;;;5014469;28;20033;-51
2021/06/01 06:28:37;;;;;;;11.70;10.50;;;15.80;99.90;;;;;;5014599;28;20483;-53
2021/06/01 06:31:05;;;;;;;15.55;10.90;;;15.80;99.90;;;;;;5014597;28;20433;-50
2021/06/01 06:33:32;;;;;;;12.50;11.27;;;15.70;99.90;;;;;;5014437;28;20025;-50
2021/06/01 06:36:00;;;;;;;13.30;10.88;;;15.70;99.90;;;;;;5014347;28;20121;-52
2021/06/01 06:38:27;;;;;;;16.05;11.43;;;15.60;99.90;;;;;;5014465;28;20026;-52
2021/06/01 06:43:22;;;;;;;11.35;10.15;;;15.50;99.90;;;;;;5014250;28;20033;-51
2021/06/01 06:45:49;;;;;;;12.50;11.07;;;15.40;99.90;;;;;;5014373;28;20025;-53
2021/06/01 06:48:16;;;;;;;13.43;12.13;;;15.30;99.90;;;;;;5014416;28;20030;-52
2021/06/01 06:50:44;;;;;;;15.18;13.70;;;15.10;99.90;;;;;;5014221;28;20101;-51
2021/06/01 06:53:11;;;;;;;14.15;13.07;;;15.00;99.90;;;;;;5014243;28;20482;-53
2021/06/01 06:55:39;;;;;;;15.48;13.90;;;14.90;99.90;;;;;;5014244;28;20044;-51
2021/06/01 06:58:06;;;;;;;16.55;14.82;;;14.80;99.90;;;;;;5013651;28;20022;-52
2021/06/01 07:00:35;;;;;;;17.13;15.50;;;14.70;99.90;;;;;;5014152;28;20030;-52
2021/06/01 07:03:03;;;;;;;16.52;14.98;;;14.70;99.90;;;;;;5013825;28;20096;-50
2021/06/01 07:05:30;;;;;;;17.13;15.68;;;14.60;99.90;;;;;;5014074;28;20017;-49
2021/06/01 07:07:58;;;;;;;18.10;16.52;;;14.50;99.90;;;;;;5013778;28;20029;-54
2021/06/01 07:10:26;;;;;;;19.50;17.90;;;14.40;99.90;;;;;;5013718;28;20029;-52
2021/06/01 07:12:54;;;;;;;19.52;18.02;;;14.20;99.90;;;;;;5013593;28;20045;-52
2021/06/01 07:15:24;;;;;;;18.77;17.40;;;14.10;99.90;;;;;;5013742;28;20082;-55
2021/06/01 07:17:57;;;;;;;19.35;18.00;;;13.90;99.90;;;;;;5013882;28;20028;-53
2021/06/01 07:20:30;;;;;;;20.20;18.50;;;13.80;99.90;;;;;;5013316;28;20080;-52
2021/06/01 07:22:58;;;;;;;20.92;19.20;;;13.80;99.90;;;;;;5013576;28;20546;-52
2021/06/01 07:25:25;;;;;;;20.83;19.27;;;13.70;99.90;;;;;;5013617;28;20026;-51
2021/06/01 07:27:52;;;;;;;22.70;20.70;;;13.70;99.90;;;;;;5013595;28;20026;-50
2021/06/01 07:30:20;;;;;;;23.33;21.25;;;13.60;99.90;;;;;;5013607;28;20033;-54
2021/06/01 07:32:48;;;;;;;23.70;21.75;;;13.60;99.90;;;;;;5013563;28;20022;-52
2021/06/01 07:35:16;;;;;;;23.42;21.65;;;13.60;99.90;;;;;;5013542;28;20049;-53
2021/06/01 07:37:45;;;;;;;24.60;22.52;;;13.60;99.90;;;;;;5013382;28;20186;-52
2021/06/01 07:40:12;;;;;;;26.42;24.15;;;13.50;99.90;;;;;;5013539;28;20087;-53
2021/06/01 07:42:40;;;;;;;27.23;25.10;;;13.50;99.90;;;;;;5013388;28;20391;-52
2021/06/01 07:45:08;;;;;;;27.67;25.55;;;13.70;99.90;;;;;;5013369;28;20363;-53
2021/06/01 07:47:36;;;;;;;29.17;26.67;;;13.70;99.90;;;;;;5013192;28;20021;-54
2021/06/01 07:50:05;;;;;;;28.83;26.67;;;13.80;99.90;;;;;;5013136;28;20026;-52
2021/06/01 07:52:32;;;;;;;30.35;27.77;;;13.70;99.90;;;;;;5013190;28;20455;-54
2021/06/01 07:55:00;;;;;;;29.67;27.38;;;13.60;99.90;;;;;;5013132;28;20069;-55
2021/06/01 07:57:27;;;;;;;30.08;27.83;;;13.60;99.90;;;;;;5012974;28;20029;-55
2021/06/01 07:59:54;;;;;;;28.58;26.20;;;13.60;99.90;;;;;;5012942;28;20443;-55
2021/06/01 08:02:24;;;;;;;28.70;26.60;;;13.50;99.90;;;;;;5013233;28;20056;-55
2021/06/01 08:04:53;;;;;;;29.35;26.75;;;13.60;99.90;;;;;;5012906;28;20034;-54
2021/06/01 08:07:20;;;;;;;29.50;27.52;;;13.60;99.90;;;;;;5013173;28;20072;-54
2021/06/01 08:09:48;;;;;;;29.33;27.45;;;13.60;99.90;;;;;;4995947;28;20049;-53
2021/06/01 08:12:16;;;;;;;32.13;29.60;;;13.50;99.90;;;;;;5012957;28;20022;-53
2021/06/01 08:14:43;;;;;;;32.55;29.90;;;13.60;99.90;;;;;;5012885;28;20184;-55
2021/06/01 08:17:11;;;;;;;34.47;31.45;;;13.50;99.90;;;;;;5013111;28;20018;-53
2021/06/01 08:19:44;;;;;;;35.85;33.03;;;13.50;99.90;;;;;;5012922;28;20030;-53
2021/06/01 08:22:31;;;;;;;39.20;35.75;;;13.40;99.90;;;;;;5012846;28;20083;-54
2021/06/01 08:24:59;;;;;;;37.85;34.38;;;13.30;99.90;;;;;;5013100;28;20034;-52
2021/06/01 08:27:28;;;;;;;36.53;33.35;;;13.30;99.90;;;;;;5013093;28;20022;-51
2021/06/01 08:29:56;;;;;;;40.10;33.88;;;13.20;99.90;;;;;;5012839;28;20395;-55
2021/06/01 08:32:25;;;;;;;37.42;34.00;;;13.20;99.90;;;;;;5013656;28;20139;-50
2021/06/01 08:34:53;;;;;;;38.92;35.33;;;13.20;99.90;;;;;;5016892;28;20029;-52
2021/06/01 08:37:20;;;;;;;38.70;35.20;;;13.20;99.90;;;;;;5016777;28;20033;-50
2021/06/01 08:39:48;;;;;;;39.20;36.10;;;13.20;99.90;;;;;;5016657;28;20116;-50
2021/06/01 08:42:16;;;;;;;43.15;39.40;;;13.20;99.90;;;;;;5016558;28;20030;-50
2021/06/01 08:44:43;;;;;;;57.92;52.53;;;13.20;99.90;;;;;;5016321;28;20034;-51
2021/06/01 08:47:10;;;;;;;54.33;49.25;;;13.20;99.90;;;;;;5016631;28;20080;-50
2021/06/01 08:49:38;;;;;;;54.50;49.95;;;13.30;99.90;;;;;;5016549;28;20394;-54
2021/06/01 08:52:06;;;;;;;39.78;37.00;;;13.30;99.90;;;;;;5016364;28;20487;-53
2021/06/01 08:54:33;;;;;;;40.10;37.20;;;13.40;99.90;;;;;;5016532;28;20439;-52
2021/06/01 08:57:02;;;;;;;40.00;37.22;;;13.50;99.90;;;;;;5016318;28;20026;-50
2021/06/01 08:59:29;;;;;;;36.58;33.90;;;13.60;99.90;;;;;;5016177;28;20045;-50
2021/06/01 09:01:58;;;;;;;37.05;34.28;;;13.60;99.90;;;;;;5016305;28;20037;-54
2021/06/01 09:04:26;;;;;;;37.85;34.88;;;13.60;99.90;;;;;;5015970;28;20038;-49
2021/06/01 09:07:01;;;;;;;37.25;34.47;;;13.60;99.90;;;;;;5016060;28;20117;-51
2021/06/01 09:09:46;;;;;;;38.50;35.58;;;13.60;99.90;;;;;;5015989;28;20037;-53
2021/06/01 09:13:09;;;;;;;38.90;36.20;;;13.60;99.90;;;;;;5016155;28;20034;-54
2021/06/01 09:15:33;;;;;;;41.10;37.85;;;13.50;99.90;;;;;;5005523;28;20577;-51
2021/06/01 09:21:14;;;;;;;40.97;38.08;;;13.40;99.90;;;;;;5016065;28;20394;-52
2021/06/01 09:23:56;;;;;;;39.80;36.60;;;13.40;99.90;;;;;;5015657;28;20030;-53
2021/06/01 09:29:16;;;;;;;40.17;37.53;;;13.20;99.90;;;;;;5016093;28;20026;-54
2021/06/01 09:31:43;;;;;;;40.05;37.35;;;13.10;99.90;;;;;;5015770;28;20352;-53
2021/06/01 09:34:11;;;;;;;40.38;37.58;;;13.00;99.90;;;;;;5015778;28;20033;-53
2021/06/01 09:36:39;;;;;;;41.30;38.20;;;12.90;99.90;;;;;;5015547;28;20403;-53
2021/06/01 09:39:08;;;;;;;42.30;39.10;;;12.80;99.90;;;;;;5015503;28;20030;-52
2021/06/01 09:41:36;;;;;;;40.58;37.42;;;12.70;99.90;;;;;;5015699;28;20022;-52
2021/06/01 09:44:07;;;;;;;41.63;38.33;;;12.70;99.90;;;;;;5013908;28;20088;-49
2021/06/01 09:46:44;;;;;;;41.33;38.25;;;12.60;99.90;;;;;;5015420;28;20048;-52
2021/06/01 09:49:15;;;;;;;43.65;40.80;;;12.50;99.90;;;;;;5015628;28;20050;-51
2021/06/01 09:51:47;;;;;;;43.88;40.83;;;12.50;99.90;;;;;;5015247;28;20382;-50
2021/06/01 09:54:55;;;;;;;43.13;39.80;;;12.50;99.90;;;;;;5015471;28;20158;-49
2021/06/01 09:57:25;;;;;;;41.30;37.65;;;12.50;99.90;;;;;;5015508;28;20226;-51
2021/06/01 10:00:15;;;;;;;41.90;38.70;;;12.60;99.90;;;;;;5014967;28;20410;-54
2021/06/01 10:02:44;;;;;;;42.67;39.38;;;12.60;99.90;;;;;;5014912;28;20165;-54
2021/06/01 10:05:19;;;;;;;41.20;38.08;;;12.50;99.90;;;;;;5014954;28;20581;-53
2021/06/01 10:07:47;;;;;;;43.97;40.53;;;12.50;99.90;;;;;;5014909;28;20103;-54
2021/06/01 10:10:25;;;;;;;42.75;39.38;;;12.50;99.90;;;;;;5014853;28;20061;-53
2021/06/01 10:12:55;;;;;;;41.30;37.92;;;12.50;99.90;;;;;;5014952;28;20030;-53
2021/06/01 10:15:26;;;;;;;42.35;39.17;;;12.50;99.90;;;;;;5014853;28;20177;-54
2021/06/01 10:17:53;;;;;;;43.78;40.50;;;12.40;99.90;;;;;;5014677;28;20038;-51
2021/06/01 10:20:24;;;;;;;42.88;39.60;;;12.40;99.90;;;;;;5014836;28;20123;-52
2021/06/01 10:22:52;;;;;;;42.97;39.67;;;12.30;99.90;;;;;;5014437;28;20463;-52
2021/06/01 10:25:20;;;;;;;42.58;39.38;;;12.30;99.90;;;;;;5014341;28;20025;-54
2021/06/01 10:27:52;;;;;;;43.38;39.95;;;12.20;99.90;;;;;;5014549;28;20026;-53
2021/06/01 10:30:21;;;;;;;41.85;38.67;;;12.20;99.90;;;;;;5014618;28;20049;-48
2021/06/01 10:32:59;;;;;;;41.63;38.33;;;12.20;99.90;;;;;;5014444;28;20018;-47
2021/06/01 10:35:32;;;;;;;42.75;39.70;;;12.10;99.90;;;;;;5014197;28;20483;-49
2021/06/01 10:51:58;;;;;;;43.30;39.88;;;11.70;99.90;;;;;;5014148;28;20400;-52
2021/06/01 10:54:45;;;;;;;42.13;38.90;;;11.70;99.90;;;;;;5013943;28;20030;-53
2021/06/01 10:57:15;;;;;;;45.60;42.10;;;11.70;99.90;;;;;;5014188;28;20037;-54
2021/06/01 10:59:51;;;;;;;44.22;41.00;;;11.70;99.90;;;;;;5013912;28;20498;-53
2021/06/01 11:02:19;;;;;;;44.30;41.33;;;11.60;99.90;;;;;;5013872;28;20455;-53
2021/06/01 11:05:12;;;;;;;42.85;39.53;;;11.60;99.90;;;;;;5013917;28;20030;-52
2021/06/01 11:08:00;;;;;;;44.45;41.08;;;11.50;99.90;;;;;;5014052;28;20390;-53
2021/06/01 11:10:37;;;;;;;44.92;41.35;;;11.50;99.90;;;;;;5013665;28;20030;-49
2021/06/01 11:13:10;;;;;;;44.25;40.92;;;11.50;99.90;;;;;;5013777;28;20113;-53
2021/06/01 11:16:00;;;;;;;44.33;40.55;;;11.40;99.90;;;;;;5013724;28;20080;-54
2021/06/01 11:18:35;;;;;;;43.83;40.63;;;11.40;99.90;;;;;;5013722;28;20029;-52
2021/06/01 11:35:22;;;;;;;43.03;39.53;;;11.40;99.90;;;;;;5013600;28;20022;-53
2021/06/01 11:38:08;;;;;;;42.45;39.03;;;11.40;99.90;;;;;;5013533;28;20057;-53
2021/06/01 11:41:02;;;;;;;42.60;39.20;;;11.40;99.90;;;;;;5013221;28;20029;-53
2021/06/01 11:43:27;;;;;;;41.33;37.95;;;11.60;99.90;;;;;;5012863;28;20030;-52
2021/06/01 11:51:29;;;;;;;41.45;38.00;;;11.70;99.90;;;;;;5013316;28;20021;-53
2021/06/01 11:54:08;;;;;;;42.78;39.17;;;11.80;99.90;;;;;;5013101;28;20074;-55
2021/06/01 12:02:57;;;;;;;42.17;38.90;;;11.70;99.90;;;;;;5013508;28;20148;-52
2021/06/01 12:18:59;;;;;;;42.33;39.15;;;11.40;99.90;;;;;;5012899;28;20072;-54
2021/06/01 12:21:34;;;;;;;42.95;39.75;;;11.40;99.90;;;;;;5012796;28;20022;-52
2021/06/01 12:24:25;;;;;;;43.25;39.95;;;11.40;99.90;;;;;;5012696;28;20044;-53
2021/06/01 12:32:22;;;;;;;41.50;38.20;;;11.40;99.90;;;;;;5013247;28;20029;-52
2021/06/01 13:07:05;;;;;;;45.28;42.03;;;11.40;99.90;;;;;;5012950;28;20068;-52
2021/06/01 13:20:36;;;;;;;43.95;40.85;;;11.90;99.90;;;;;;5016444;28;20073;-51
2021/06/01 13:39:44;;;;;;;45.60;42.50;;;11.90;99.90;;;;;;5015802;28;20026;-52
2021/06/01 13:48:21;;;;;;;47.38;44.35;;;11.90;99.90;;;;;;5015934;28;20033;-52
2021/06/01 13:51:06;;;;;;;49.35;46.35;;;11.90;99.90;;;;;;5015396;28;20026;-53
2021/06/01 13:56:07;;;;;;;50.30;47.03;;;11.80;99.90;;;;;;5015448;28;20101;-52
2021/06/01 14:01:29;;;;;;;49.55;45.88;;;11.80;99.90;;;;;;5015411;28;20146;-49
2021/06/01 14:15:34;;;;;;;48.72;45.60;;;11.60;99.90;;;;;;4993797;28;20089;-51
2021/06/01 14:21:05;;;;;;;49.55;46.45;;;11.60;99.90;;;;;;5015446;28;20398;-54
2021/06/01 14:35:45;;;;;;;51.92;48.78;;;11.40;99.90;;;;;;5014949;28;20033;-53
2021/06/01 14:38:02;;;;;;;54.72;51.17;;;11.40;99.90;;;;;;5014805;28;20081;-50
2021/06/01 15:08:22;;;;;;;58.17;53.95;;;11.50;99.90;;;;;;5014142;28;20018;-53
2021/06/01 15:11:01;;;;;;;60.17;55.55;;;11.50;99.90;;;;;;5013858;28;20491;-51
2021/06/01 15:49:29;;;;;;;64.38;59.58;;;11.10;99.90;;;;;;4972725;28;20034;-50
2021/06/01 16:14:58;;;;;;;68.65;63.17;;;10.80;99.90;;;;;;5007450;28;20089;-52
2021/06/01 16:23:09;;;;;;;68.90;63.22;;;10.80;99.90;;;;;;5013135;28;20057;-54
2021/06/01 16:31:34;;;;;;;74.63;69.03;;;10.70;99.90;;;;;;5013425;28;20057;-51
2021/06/01 17:04:45;;;;;;;69.40;64.53;;;10.30;99.90;;;;;;5016561;28;20052;-54
2021/06/01 17:07:35;;;;;;;67.15;62.35;;;10.40;99.90;;;;;;5016422;28;20505;-50
2021/06/01 17:13:01;;;;;;;59.95;55.95;;;10.40;99.90;;;;;;5016859;28;20049;-53
2021/06/01 17:15:28;;;;;;;57.50;53.67;;;10.80;99.90;;;;;;5016263;28;20034;-54
2021/06/01 17:18:05;;;;;;;59.72;55.88;;;11.10;99.90;;;;;;5016193;28;20411;-51
2021/06/01 17:21:07;;;;;;;57.97;54.20;;;11.10;99.90;;;;;;5016220;28;20524;-54
2021/06/01 17:23:42;;;;;;;56.80;53.05;;;11.00;99.90;;;;;;5015867;28;20022;-50
2021/06/01 17:37:03;;;;;;;51.75;48.85;;;10.90;99.90;;;;;;5016022;28;20152;-54
2021/06/01 17:39:31;;;;;;;46.03;43.22;;;10.90;99.90;;;;;;5015958;28;20076;-54
2021/06/01 17:42:00;;;;;;;45.08;42.38;;;11.10;99.90;;;;;;5015638;28;20030;-54
2021/06/01 17:44:31;;;;;;;48.17;45.50;;;11.20;99.90;;;;;;5015795;28;20026;-54
2021/06/01 17:47:02;;;;;;;;;;;11.10;99.90;;;;;;5016238;28;20060;-53
2021/06/01 17:49:31;;;;;;;45.70;43.25;;;11.20;99.90;;;;;;5015847;28;20374;-53
2021/06/01 17:52:01;;;;;;;42.92;40.58;;;11.20;99.90;;;;;;5015673;28;20022;-53
2021/06/01 17:54:34;;;;;;;43.97;41.40;;;11.20;99.90;;;;;;5015761;28;20022;-48
2021/06/01 17:57:03;;;;;;;44.72;42.42;;;11.10;99.90;;;;;;5015552;28;20029;-51
2021/06/01 17:59:31;;;;;;;42.15;39.47;;;11.00;99.90;;;;;;5015298;28;20037;-48
2021/06/01 18:01:59;;;;;;;41.90;39.42;;;10.90;99.90;;;;;;4997927;28;20101;-49
2021/06/01 18:04:26;;;;;;;44.53;42.13;;;10.80;99.90;;;;;;5014702;28;20188;-54
2021/06/01 18:07:02;;;;;;;42.83;40.50;;;10.70;99.90;;;;;;5014811;28;20080;-53
2021/06/01 19:26:30;;;;;;;63.42;60.13;;;9.90;99.90;;;;;;5014132;28;20053;-53
2021/06/01 19:51:23;;;;;;;62.67;59.38;;;9.80;99.90;;;;;;4976417;28;20041;-54
2021/06/01 19:53:52;;;;;;;63.75;60.35;;;9.80;99.90;;;;;;5013398;28;20395;-53